Time;durP1;ratioP1;P1;durP2;ratioP2;P2;SDS_P1;SDS_P2;PMS_P1;PMS_P2;Temp;Humidity;BMP_temperature;BMP_pressure;BME280_temperature;BME280_humidity;BME280_pressure;Samples;Min_cycle;Max_cycle;Signal;HPM_P1;HPM_P2
2022/06/19 00:02:06;;;;;;;2.85;1.70;;;;;;;;;;5114573;28;20284;-49
2022/06/19 00:04:33;;;;;;;4.60;1.73;;;;;;;;;;5114570;28;20076;-47
2022/06/19 00:07:01;;;;;;;4.45;1.75;;;;;;;;;;5114382;28;20050;-50
2022/06/19 00:09:28;;;;;;;4.30;1.88;;;;;;;;;;5114405;28;20517;-50
2022/06/19 00:11:56;;;;;;;4.78;1.85;;;;;;;;;;5114026;28;20134;-49
2022/06/19 00:14:24;;;;;;;3.30;2.03;;;;;;;;;;5114047;28;20086;-50
2022/06/19 00:16:52;;;;;;;3.78;1.85;;;;;;;;;;5114231;28;20061;-44
2022/06/19 00:19:19;;;;;;;3.22;1.63;;;;;;;;;;5114325;28;20050;-50
2022/06/19 00:21:47;;;;;;;3.15;1.98;;;;;;;;;;5113876;28;20043;-43
2022/06/19 00:24:14;;;;;;;4.32;1.65;;;;;;;;;;5114320;28;20054;-50
2022/06/19 00:26:42;;;;;;;3.05;1.60;;;;;;;;;;5113940;28;20053;-48
2022/06/19 00:29:09;;;;;;;2.33;1.48;;;;;;;;;;5113891;28;20116;-50
2022/06/19 00:31:36;;;;;;;2.25;1.73;;;;;;;;;;5113815;28;20036;-48
2022/06/19 00:34:04;;;;;;;2.28;1.50;;;;;;;;;;5113895;28;20035;-50
2022/06/19 00:36:31;;;;;;;5.10;1.60;;;;;;;;;;5113839;28;20513;-47
2022/06/19 00:38:59;;;;;;;2.92;1.80;;;;;;;;;;5113691;28;20386;-49
2022/06/19 00:41:33;;;;;;;2.80;1.55;;;;;;;;;;5113728;28;20112;-51
2022/06/19 00:44:05;;;;;;;4.57;2.05;;;;;;;;;;5113606;28;20067;-47
2022/06/19 00:46:46;;;;;;;4.25;1.60;;;;;;;;;;5113798;28;20391;-52
2022/06/19 00:49:18;;;;;;;3.22;1.90;;;;;;;;;;5113738;28;20032;-50
2022/06/19 00:51:47;;;;;;;3.22;1.63;;;;;;;;;;5113522;28;20080;-48
2022/06/19 00:54:19;;;;;;;2.50;1.58;;;;;;;;;;5112336;28;20039;-46
2022/06/19 00:56:46;;;;;;;5.07;1.58;;;;;;;;;;5112289;28;20517;-51
2022/06/19 00:59:14;;;;;;;3.90;1.98;;;;;;;;;;5112087;28;20040;-48
2022/06/19 01:01:42;;;;;;;2.75;1.73;;;;;;;;;;5112891;28;20047;-50
2022/06/19 01:04:25;;;;;;;2.22;1.30;;;;;;;;;;5113340;28;20494;-47
2022/06/19 01:06:52;;;;;;;5.93;1.67;;;;;;;;;;5113284;28;20703;-47
2022/06/19 01:09:19;;;;;;;2.40;1.45;;;;;;;;;;5113217;28;20101;-44
2022/06/19 01:11:47;;;;;;;3.85;1.70;;;;;;;;;;5113161;28;20126;-51
2022/06/19 01:14:20;;;;;;;4.88;1.55;;;;;;;;;;5113255;28;20085;-53
2022/06/19 01:16:48;;;;;;;3.80;1.35;;;;;;;;;;5113238;28;20047;-51
2022/06/19 01:19:25;;;;;;;2.78;1.60;;;;;;;;;;5113211;28;20364;-51
2022/06/19 01:22:05;;;;;;;4.25;1.48;;;;;;;;;;5112846;28;20486;-48
2022/06/19 01:24:53;;;;;;;4.05;1.40;;;;;;;;;;5112929;28;20556;-51
2022/06/19 01:30:08;;;;;;;2.65;1.23;;;;;;;;;;5092626;28;20040;-52
2022/06/19 01:32:37;;;;;;;3.33;1.60;;;;;;;;;;5092491;28;20032;-52
2022/06/19 01:35:07;;;;;;;4.95;1.60;;;;;;;;;;5092373;28;20502;-50
2022/06/19 01:37:36;;;;;;;3.60;2.25;;;;;;;;;;5093659;28;20051;-51
2022/06/19 01:40:11;;;;;;;4.20;1.80;;;;;;;;;;5112556;28;20043;-53
2022/06/19 01:42:39;;;;;;;5.05;1.83;;;;;;;;;;5112755;28;20455;-52
2022/06/19 01:45:07;;;;;;;5.10;2.05;;;;;;;;;;5112468;28;20035;-51
2022/06/19 01:47:35;;;;;;;4.53;1.63;;;;;;;;;;5112591;28;20040;-51
2022/06/19 01:50:07;;;;;;;4.22;1.50;;;;;;;;;;5112573;28;20082;-49
2022/06/19 01:52:34;;;;;;;5.43;1.60;;;;;;;;;;5112525;28;20051;-50
2022/06/19 01:55:07;;;;;;;3.03;1.50;;;;;;;;;;5112625;28;20035;-49
2022/06/19 01:57:36;;;;;;;;;;;;;;;;;;5112930;28;20032;-53
2022/06/19 02:00:08;;;;;;;5.20;1.70;;;;;;;;;;5112350;28;20317;-50
2022/06/19 02:02:41;;;;;;;3.40;1.60;;;;;;;;;;5112442;28;20502;-49
2022/06/19 02:05:08;;;;;;;5.63;1.15;;;;;;;;;;5112469;28;20418;-48
2022/06/19 02:07:35;;;;;;;2.63;1.20;;;;;;;;;;5112257;28;20043;-53
2022/06/19 02:10:03;;;;;;;5.63;1.67;;;;;;;;;;5112607;28;20036;-50
2022/06/19 02:12:32;;;;;;;3.72;1.58;;;;;;;;;;5113931;28;20512;-48
2022/06/19 02:15:02;;;;;;;3.97;1.50;;;;;;;;;;5116559;27;20040;-49
2022/06/19 02:17:36;;;;;;;3.92;1.30;;;;;;;;;;5116359;28;20050;-52
2022/06/19 02:20:05;;;;;;;2.42;1.40;;;;;;;;;;5116286;28;20054;-49
2022/06/19 02:22:32;;;;;;;3.88;1.70;;;;;;;;;;5116482;28;20047;-50
2022/06/19 02:25:01;;;;;;;2.13;1.00;;;;;;;;;;5116441;28;20537;-49
2022/06/19 02:27:31;;;;;;;3.65;1.13;;;;;;;;;;5116288;28;20454;-49
2022/06/19 02:30:01;;;;;;;3.65;1.20;;;;;;;;;;5116136;28;20036;-53
2022/06/19 02:32:45;;;;;;;2.72;1.25;;;;;;;;;;5116233;28;20028;-48
2022/06/19 02:35:18;;;;;;;3.22;1.63;;;;;;;;;;5116289;28;20040;-51
2022/06/19 02:37:50;;;;;;;4.20;1.45;;;;;;;;;;5116082;28;20044;-49
2022/06/19 02:40:41;;;;;;;3.00;1.20;;;;;;;;;;5116006;28;20075;-51
2022/06/19 02:43:14;;;;;;;4.80;1.30;;;;;;;;;;5116184;28;20035;-52
2022/06/19 02:45:42;;;;;;;4.82;1.60;;;;;;;;;;5114730;28;20122;-50
2022/06/19 02:48:20;;;;;;;3.05;1.50;;;;;;;;;;5115916;28;20039;-52
2022/06/19 02:50:48;;;;;;;3.05;1.50;;;;;;;;;;5115648;28;20074;-51
2022/06/19 02:53:16;;;;;;;2.72;1.30;;;;;;;;;;5116139;28;20040;-47
2022/06/19 02:55:44;;;;;;;3.42;1.45;;;;;;;;;;5115579;28;20040;-51
2022/06/19 02:58:11;;;;;;;3.90;1.90;;;;;;;;;;5115861;28;20124;-52
2022/06/19 03:00:39;;;;;;;4.22;1.83;;;;;;;;;;5115587;28;20048;-54
2022/06/19 03:03:35;;;;;;;2.08;1.40;;;;;;;;;;5115635;28;20444;-50
2022/06/19 03:06:04;;;;;;;1.65;0.93;;;;;;;;;;5115675;28;20039;-47
2022/06/19 03:08:32;;;;;;;3.45;1.38;;;;;;;;;;5115649;28;20051;-52
2022/06/19 03:10:59;;;;;;;3.28;1.60;;;;;;;;;;5115602;28;20114;-50
2022/06/19 03:13:26;;;;;;;2.50;1.25;;;;;;;;;;5115386;28;20064;-46
2022/06/19 03:16:06;;;;;;;2.60;1.27;;;;;;;;;;5115431;28;20420;-52
2022/06/19 03:18:35;;;;;;;2.50;1.30;;;;;;;;;;5115339;28;20047;-51
2022/06/19 03:21:02;;;;;;;4.18;1.30;;;;;;;;;;5115375;28;20432;-51
2022/06/19 03:23:30;;;;;;;2.10;1.10;;;;;;;;;;5114993;28;20040;-49
2022/06/19 03:25:58;;;;;;;3.80;1.30;;;;;;;;;;5114263;28;20050;-50
2022/06/19 03:28:25;;;;;;;2.85;1.20;;;;;;;;;;5115329;28;20043;-51
2022/06/19 03:30:56;;;;;;;2.25;1.33;;;;;;;;;;5115288;28;20070;-49
2022/06/19 03:33:24;;;;;;;2.45;1.20;;;;;;;;;;5115392;28;20040;-49
2022/06/19 03:35:52;;;;;;;2.72;1.20;;;;;;;;;;5114906;28;20040;-54
2022/06/19 03:38:20;;;;;;;1.23;0.80;;;;;;;;;;5115084;28;20118;-50
2022/06/19 03:40:47;;;;;;;2.30;1.10;;;;;;;;;;5114617;27;20047;-42
2022/06/19 03:43:15;;;;;;;1.70;1.10;;;;;;;;;;5114896;28;20044;-51
2022/06/19 03:45:42;;;;;;;2.72;1.05;;;;;;;;;;5115054;28;20414;-52
2022/06/19 03:48:12;;;;;;;2.20;1.05;;;;;;;;;;5114632;28;20131;-49
2022/06/19 03:50:41;;;;;;;2.00;1.00;;;;;;;;;;5114814;28;20047;-53
2022/06/19 03:53:09;;;;;;;1.38;1.00;;;;;;;;;;5114629;28;20039;-49
2022/06/19 03:55:36;;;;;;;1.77;1.00;;;;;;;;;;5114508;28;20039;-50
2022/06/19 03:58:04;;;;;;;2.45;1.02;;;;;;;;;;5114633;28;20122;-49
2022/06/19 04:00:31;;;;;;;1.58;1.10;;;;;;;;;;5114489;28;20143;-52
2022/06/19 04:02:58;;;;;;;1.52;0.98;;;;;;;;;;5114785;27;20032;-53
2022/06/19 04:05:26;;;;;;;2.20;1.10;;;;;;;;;;5114890;28;20039;-53
2022/06/19 04:07:53;;;;;;;1.60;1.00;;;;;;;;;;5114223;28;20036;-53
2022/06/19 04:10:22;;;;;;;1.73;1.00;;;;;;;;;;5114561;28;20051;-48
2022/06/19 04:12:53;;;;;;;1.17;0.90;;;;;;;;;;5114173;28;20070;-47
2022/06/19 04:15:22;;;;;;;1.20;0.88;;;;;;;;;;5114342;28;20040;-51
2022/06/19 04:17:49;;;;;;;3.70;1.50;;;;;;;;;;5114126;28;20141;-52
2022/06/19 04:20:16;;;;;;;1.20;0.80;;;;;;;;;;5114096;28;20085;-52
2022/06/19 04:22:43;;;;;;;2.28;1.00;;;;;;;;;;5114232;28;20035;-50
2022/06/19 04:25:14;;;;;;;3.13;0.93;;;;;;;;;;5113887;28;20047;-53
2022/06/19 04:27:45;;;;;;;1.38;0.82;;;;;;;;;;5113829;28;20051;-49
2022/06/19 04:30:19;;;;;;;3.38;1.08;;;;;;;;;;5113968;28;20044;-50
2022/06/19 04:32:47;;;;;;;2.10;0.90;;;;;;;;;;5113830;28;20384;-49
2022/06/19 04:35:14;;;;;;;1.23;0.90;;;;;;;;;;5113141;28;20096;-48
2022/06/19 04:37:43;;;;;;;1.55;0.85;;;;;;;;;;5113671;28;20051;-52
2022/06/19 04:40:12;;;;;;;1.98;1.10;;;;;;;;;;5113684;28;20035;-45
2022/06/19 04:42:39;;;;;;;1.42;0.98;;;;;;;;;;5113861;28;20115;-50
2022/06/19 04:45:08;;;;;;;1.83;1.00;;;;;;;;;;5113673;28;20061;-46
2022/06/19 04:47:35;;;;;;;2.55;1.40;;;;;;;;;;5113560;28;20093;-48
2022/06/19 04:50:02;;;;;;;1.33;0.90;;;;;;;;;;5113684;28;20043;-46
2022/06/19 04:52:29;;;;;;;2.20;1.00;;;;;;;;;;5113691;28;20047;-51
2022/06/19 04:54:57;;;;;;;1.50;1.02;;;;;;;;;;5113538;28;20039;-50
2022/06/19 04:57:24;;;;;;;3.20;0.90;;;;;;;;;;5113404;28;20563;-46
2022/06/19 04:59:51;;;;;;;1.58;0.90;;;;;;;;;;5113151;28;20035;-50
2022/06/19 05:02:18;;;;;;;1.90;1.00;;;;;;;;;;5113383;28;20110;-51
2022/06/19 05:04:49;;;;;;;2.63;1.10;;;;;;;;;;5113358;28;20040;-48
2022/06/19 05:07:16;;;;;;;6.72;1.20;;;;;;;;;;5113233;28;20445;-48
2022/06/19 05:09:44;;;;;;;1.52;0.90;;;;;;;;;;5113118;28;20044;-46
2022/06/19 05:12:15;;;;;;;1.80;1.00;;;;;;;;;;5113049;28;20058;-47
2022/06/19 05:14:42;;;;;;;1.35;1.00;;;;;;;;;;5113121;28;20413;-50
2022/06/19 05:17:09;;;;;;;1.63;0.95;;;;;;;;;;5112791;28;20039;-51
2022/06/19 05:19:40;;;;;;;1.25;0.85;;;;;;;;;;5113085;28;20036;-46
2022/06/19 05:22:08;;;;;;;0.88;0.68;;;;;;;;;;5113077;28;20043;-46
2022/06/19 05:24:35;;;;;;;1.08;0.80;;;;;;;;;;5112927;28;20036;-52
2022/06/19 05:27:09;;;;;;;145.07;75.45;;;;;;;;;;5112995;28;20085;-50
2022/06/19 05:29:39;;;;;;;7.00;3.95;;;;;;;;;;5111681;28;20119;-51
2022/06/19 05:32:07;;;;;;;2.30;0.95;;;;;;;;;;5112849;28;20562;-48
2022/06/19 05:34:36;;;;;;;1.38;0.98;;;;;;;;;;5112888;28;20502;-44
2022/06/19 05:37:04;;;;;;;0.82;0.75;;;;;;;;;;5113072;28;20039;-48
2022/06/19 05:39:31;;;;;;;1.50;0.65;;;;;;;;;;5111350;28;20130;-49
2022/06/19 05:41:58;;;;;;;1.27;0.80;;;;;;;;;;5112598;28;20089;-51
2022/06/19 05:44:28;;;;;;;2.20;0.88;;;;;;;;;;5112547;28;20047;-52
2022/06/19 05:46:55;;;;;;;1.20;0.90;;;;;;;;;;5111725;28;20047;-52
2022/06/19 05:49:23;;;;;;;1.38;0.88;;;;;;;;;;5112683;28;20127;-53
2022/06/19 05:51:50;;;;;;;1.20;0.80;;;;;;;;;;5112541;28;20445;-52
2022/06/19 05:54:17;;;;;;;46.03;22.35;;;;;;;;;;5112610;28;20032;-49
2022/06/19 05:56:44;;;;;;;5.00;2.35;;;;;;;;;;5112479;28;20085;-50
2022/06/19 05:59:12;;;;;;;1.75;0.80;;;;;;;;;;5112478;28;20556;-51
2022/06/19 06:01:39;;;;;;;1.40;0.90;;;;;;;;;;5112241;28;20058;-49
2022/06/19 06:04:07;;;;;;;1.58;0.80;;;;;;;;;;5112448;28;20051;-50
2022/06/19 06:06:35;;;;;;;1.48;0.85;;;;;;;;;;5112327;28;20036;-45
2022/06/19 06:09:02;;;;;;;1.00;0.70;;;;;;;;;;5112613;28;20044;-51
2022/06/19 06:11:29;;;;;;;4.05;0.90;;;;;;;;;;5104894;28;20036;-56
2022/06/19 06:13:57;;;;;;;3.45;0.70;;;;;;;;;;5091583;28;20056;-49
2022/06/19 06:16:25;;;;;;;2.22;0.68;;;;;;;;;;5091308;28;20048;-52
2022/06/19 06:18:53;;;;;;;1.05;0.68;;;;;;;;;;5091873;28;20043;-51
2022/06/19 06:21:23;;;;;;;2.63;1.00;;;;;;;;;;5091667;28;20576;-52
2022/06/19 06:23:52;;;;;;;10.48;6.22;;;;;;;;;;5091750;28;20499;-51
2022/06/19 06:26:25;;;;;;;2.95;1.33;;;;;;;;;;5091771;28;20138;-49
2022/06/19 06:28:55;;;;;;;0.73;0.65;;;;;;;;;;5091877;28;20384;-52
2022/06/19 06:31:22;;;;;;;1.83;1.05;;;;;;;;;;5091867;28;20047;-48
2022/06/19 06:33:56;;;;;;;1.73;0.80;;;;;;;;;;5091678;28;20430;-50
2022/06/19 06:36:25;;;;;;;1.20;0.73;;;;;;;;;;5091765;28;20071;-52
2022/06/19 06:38:54;;;;;;;2.00;1.00;;;;;;;;;;5104093;28;20093;-53
2022/06/19 06:41:21;;;;;;;1.08;0.90;;;;;;;;;;5109617;28;20437;-47
2022/06/19 06:43:48;;;;;;;1.67;0.70;;;;;;;;;;5111884;28;20115;-54
2022/06/19 06:46:27;;;;;;;1.83;0.70;;;;;;;;;;5111684;28;20032;-52
2022/06/19 06:48:59;;;;;;;1.92;0.90;;;;;;;;;;5111175;28;20440;-47
2022/06/19 06:51:28;;;;;;;2.47;1.30;;;;;;;;;;5112084;28;20079;-52
2022/06/19 06:53:55;;;;;;;2.85;1.10;;;;;;;;;;5111901;28;20280;-53
2022/06/19 06:56:23;;;;;;;2.22;1.10;;;;;;;;;;5111968;28;20134;-52
2022/06/19 06:58:50;;;;;;;1.25;0.90;;;;;;;;;;5113894;28;20047;-51
2022/06/19 07:01:21;;;;;;;1.83;1.33;;;;;;;;;;5115661;28;20039;-51
2022/06/19 07:03:52;;;;;;;5.50;2.60;;;;;;;;;;5115630;28;20032;-51
2022/06/19 07:06:19;;;;;;;3.40;1.10;;;;;;;;;;5115418;28;20114;-51
2022/06/19 07:08:47;;;;;;;1.10;0.70;;;;;;;;;;5115663;28;20428;-51
2022/06/19 07:11:20;;;;;;;1.30;0.70;;;;;;;;;;5115192;28;20039;-50
2022/06/19 07:13:47;;;;;;;2.63;0.80;;;;;;;;;;5115170;28;20044;-44
2022/06/19 07:16:15;;;;;;;3.25;0.73;;;;;;;;;;5115513;27;20043;-53
2022/06/19 07:18:43;;;;;;;1.70;0.75;;;;;;;;;;5115441;28;20071;-48
2022/06/19 07:21:11;;;;;;;1.77;0.80;;;;;;;;;;5115357;28;20043;-51
2022/06/19 07:23:40;;;;;;;1.45;0.70;;;;;;;;;;5115065;28;20123;-48
2022/06/19 07:26:18;;;;;;;2.25;0.70;;;;;;;;;;5115388;28;20090;-52
2022/06/19 07:28:46;;;;;;;1.35;0.77;;;;;;;;;;5115162;28;20494;-53
2022/06/19 07:31:22;;;;;;;1.38;0.88;;;;;;;;;;5114287;28;20388;-53
2022/06/19 07:33:52;;;;;;;2.45;1.05;;;;;;;;;;5115142;28;20514;-53
2022/06/19 07:36:21;;;;;;;1.75;0.80;;;;;;;;;;5114932;28;20043;-52
2022/06/19 07:38:49;;;;;;;0.80;0.70;;;;;;;;;;5115017;28;20551;-56
2022/06/19 07:41:16;;;;;;;4.20;1.15;;;;;;;;;;5114817;28;20040;-54
2022/06/19 07:43:45;;;;;;;1.27;0.70;;;;;;;;;;5114805;28;20084;-56
2022/06/19 07:46:13;;;;;;;2.17;0.88;;;;;;;;;;5114940;28;20177;-55
2022/06/19 07:51:28;;;;;;;1.35;0.70;;;;;;;;;;5114846;28;20043;-58
2022/06/19 07:53:59;;;;;;;1.10;0.60;;;;;;;;;;5114670;28;20097;-57
2022/06/19 07:56:27;;;;;;;1.90;0.80;;;;;;;;;;5114675;28;20044;-55
2022/06/19 07:58:54;;;;;;;1.63;1.00;;;;;;;;;;5114526;28;20510;-55
2022/06/19 08:01:22;;;;;;;1.13;0.70;;;;;;;;;;5113086;28;20085;-57
2022/06/19 08:03:56;;;;;;;1.90;0.95;;;;;;;;;;5114560;28;20058;-56
2022/06/19 08:06:25;;;;;;;1.55;0.80;;;;;;;;;;5114467;28;20039;-58
2022/06/19 08:08:52;;;;;;;1.17;0.73;;;;;;;;;;5106104;28;20453;-54
2022/06/19 08:11:19;;;;;;;1.42;0.70;;;;;;;;;;5093179;28;20036;-55
2022/06/19 08:13:47;;;;;;;1.77;1.02;;;;;;;;;;5093342;28;20109;-55
2022/06/19 08:16:14;;;;;;;1.95;0.90;;;;;;;;;;5094048;28;20481;-55
2022/06/19 08:18:41;;;;;;;1.67;0.93;;;;;;;;;;5092540;28;20073;-55
2022/06/19 08:21:09;;;;;;;2.10;1.10;;;;;;;;;;5093887;28;20552;-55
2022/06/19 08:23:36;;;;;;;9.07;5.40;;;;;;;;;;5093691;28;20044;-49
2022/06/19 08:26:04;;;;;;;3.22;1.55;;;;;;;;;;5093708;28;20054;-57
2022/06/19 08:29:14;;;;;;;3.15;1.13;;;;;;;;;;5093866;28;20032;-55
2022/06/19 08:31:21;;;;;;;1.77;0.95;;;;;;;;;;5073425;28;20060;-55
2022/06/19 08:33:49;;;;;;;1.63;0.70;;;;;;;;;;5073194;28;20098;-54
2022/06/19 08:36:19;;;;;;;2.60;0.95;;;;;;;;;;5073219;28;20063;-56
2022/06/19 08:38:51;;;;;;;5.78;0.80;;;;;;;;;;5083101;28;20119;-55
2022/06/19 08:41:39;;;;;;;1.33;0.80;;;;;;;;;;5093278;28;20050;-56
2022/06/19 08:44:30;;;;;;;1.10;0.80;;;;;;;;;;5093648;28;20068;-48
2022/06/19 08:47:04;;;;;;;1.85;1.00;;;;;;;;;;5092929;28;20036;-55
2022/06/19 08:49:58;;;;;;;0.95;0.77;;;;;;;;;;5093413;28;20407;-55
2022/06/19 08:52:37;;;;;;;2.78;0.88;;;;;;;;;;5093270;28;20163;-52
2022/06/19 08:55:10;;;;;;;1.50;0.80;;;;;;;;;;5093501;28;20372;-55
2022/06/19 08:58:14;;;;;;;170.88;98.30;;;;;;;;;;5093035;28;20032;-48
2022/06/19 09:01:07;;;;;;;15.27;9.70;;;;;;;;;;5087686;28;20040;-54
2022/06/19 09:07:28;;;;;;;1.70;1.10;;;;;;;;;;5071567;28;20410;-53
2022/06/19 09:10:04;;;;;;;1.15;0.85;;;;;;;;;;5071119;28;20435;-53
2022/06/19 09:12:38;;;;;;;1.20;0.90;;;;;;;;;;5072768;28;20088;-51
2022/06/19 09:15:14;;;;;;;1.17;0.80;;;;;;;;;;5072730;28;20040;-51
2022/06/19 09:17:56;;;;;;;1.48;1.00;;;;;;;;;;5072435;28;20119;-52
2022/06/19 09:20:32;;;;;;;1.58;0.90;;;;;;;;;;5072165;28;20048;-54
2022/06/19 09:23:21;;;;;;;4.30;1.15;;;;;;;;;;5072598;28;20446;-50
2022/06/19 09:26:08;;;;;;;1.70;0.90;;;;;;;;;;5072498;28;20041;-54
2022/06/19 09:28:56;;;;;;;2.38;0.80;;;;;;;;;;5072365;28;20441;-53
2022/06/19 09:31:42;;;;;;;4.30;1.92;;;;;;;;;;5071363;28;20937;-53
2022/06/19 09:34:41;;;;;;;1.20;0.80;;;;;;;;;;5072447;28;20392;-52
2022/06/19 09:37:34;;;;;;;1.67;0.90;;;;;;;;;;5071586;28;20052;-52
2022/06/19 09:40:13;;;;;;;3.55;0.88;;;;;;;;;;5072142;28;20044;-53
2022/06/19 09:43:11;;;;;;;2.58;1.20;;;;;;;;;;5072215;28;20053;-53
2022/06/19 09:45:47;;;;;;;1.85;1.20;;;;;;;;;;5074116;28;20043;-41
2022/06/19 09:48:30;;;;;;;3.38;1.13;;;;;;;;;;5089946;28;20039;-38
2022/06/19 09:51:11;;;;;;;2.47;1.27;;;;;;;;;;5091809;28;20051;-42
2022/06/19 09:53:45;;;;;;;2.38;0.98;;;;;;;;;;5091682;28;20036;-39
2022/06/19 09:56:37;;;;;;;2.60;0.88;;;;;;;;;;5091730;28;20044;-43
2022/06/19 09:59:20;;;;;;;3.13;1.05;;;;;;;;;;5092017;28;20039;-49
2022/06/19 10:01:56;;;;;;;1.70;1.17;;;;;;;;;;5092148;28;20063;-52
2022/06/19 10:04:38;;;;;;;3.85;2.15;;;;;;;;;;5092297;28;20113;-52
2022/06/19 10:07:25;;;;;;;2.47;1.15;;;;;;;;;;5091622;28;20399;-50
2022/06/19 10:10:07;;;;;;;2.00;0.80;;;;;;;;;;5092002;28;20449;-50
2022/06/19 10:12:43;;;;;;;1.42;0.90;;;;;;;;;;5091844;28;20117;-42
2022/06/19 10:15:19;;;;;;;3.00;0.95;;;;;;;;;;5092016;28;20047;-41
2022/06/19 10:18:00;;;;;;;2.15;0.90;;;;;;;;;;5090842;28;20047;-40
2022/06/19 10:20:50;;;;;;;4.15;1.17;;;;;;;;;;5091887;28;20044;-43
2022/06/19 10:23:41;;;;;;;1.27;0.80;;;;;;;;;;5092107;28;20040;-39
2022/06/19 10:26:27;;;;;;;2.53;0.95;;;;;;;;;;5091594;28;20043;-41
2022/06/19 10:29:00;;;;;;;1.25;0.80;;;;;;;;;;5091300;28;20123;-45
2022/06/19 10:31:46;;;;;;;3.38;1.08;;;;;;;;;;5091760;28;20048;-42
2022/06/19 10:34:30;;;;;;;1.33;0.80;;;;;;;;;;5094773;28;20044;-43
2022/06/19 10:37:16;;;;;;;1.90;1.08;;;;;;;;;;5095472;28;20047;-42
2022/06/19 10:40:06;;;;;;;1.38;0.68;;;;;;;;;;5094761;28;20116;-50
2022/06/19 10:43:05;;;;;;;2.10;0.73;;;;;;;;;;5095715;28;20590;-41
2022/06/19 10:45:49;;;;;;;2.67;0.60;;;;;;;;;;5095796;28;20043;-41
2022/06/19 10:48:36;;;;;;;1.45;0.70;;;;;;;;;;5074855;28;20040;-44
2022/06/19 10:51:08;;;;;;;2.03;0.65;;;;;;;;;;5075486;28;20372;-42
2022/06/19 10:54:13;;;;;;;1.67;0.50;;;;;;;;;;5075540;28;20040;-43
2022/06/19 10:56:43;;;;;;;3.67;0.70;;;;;;;;;;5074756;28;20508;-51
2022/06/19 10:59:13;;;;;;;1.63;0.60;;;;;;;;;;5079935;28;20779;-49
2022/06/19 11:04:39;;;;;;;0.98;0.70;;;;;;;;;;5094971;28;20050;-49
2022/06/19 11:07:12;;;;;;;1.55;0.60;;;;;;;;;;5095428;28;20414;-41
2022/06/19 11:09:55;;;;;;;8.85;2.20;;;;;;;;;;5094869;28;20093;-47
2022/06/19 11:12:45;;;;;;;3.55;1.70;;;;;;;;;;5094372;28;20522;-49
2022/06/19 11:15:24;;;;;;;0.70;0.52;;;;;;;;;;5094936;28;20080;-51
2022/06/19 11:18:09;;;;;;;0.65;0.50;;;;;;;;;;5093601;28;20062;-42
2022/06/19 11:20:36;;;;;;;1.10;0.50;;;;;;;;;;5095004;28;20494;-42
2022/06/19 11:23:29;;;;;;;0.77;0.50;;;;;;;;;;5094427;28;20242;-48
2022/06/19 11:26:31;;;;;;;1.05;0.40;;;;;;;;;;5077627;28;20744;-52
2022/06/19 11:29:20;;;;;;;0.40;0.40;;;;;;;;;;5090111;28;20044;-50
2022/06/19 11:32:13;;;;;;;4.00;0.50;;;;;;;;;;5092013;28;20048;-51
2022/06/19 11:34:44;;;;;;;2.83;0.40;;;;;;;;;;5092184;28;20040;-51
2022/06/19 11:37:31;;;;;;;1.45;0.63;;;;;;;;;;5092745;28;20075;-49
2022/06/19 11:40:00;;;;;;;1.25;0.70;;;;;;;;;;5071599;28;20056;-49
2022/06/19 11:42:33;;;;;;;1.75;0.52;;;;;;;;;;5072141;28;20040;-52
2022/06/19 11:45:14;;;;;;;0.38;0.38;;;;;;;;;;5071510;28;20071;-44
2022/06/19 11:47:55;;;;;;;0.93;0.30;;;;;;;;;;5072108;28;20560;-47
2022/06/19 11:50:25;;;;;;;13.45;8.23;;;;;;;;;;5071560;28;20036;-44
2022/06/19 11:52:56;;;;;;;0.85;0.43;;;;;;;;;;5093697;28;20039;-49
2022/06/19 11:55:29;;;;;;;0.65;0.30;;;;;;;;;;5112083;28;20043;-44
2022/06/19 11:58:00;;;;;;;0.43;0.30;;;;;;;;;;5112585;28;20043;-42
2022/06/19 12:00:33;;;;;;;0.73;0.30;;;;;;;;;;5076789;28;20052;-43
2022/06/19 12:03:05;;;;;;;1.48;0.35;;;;;;;;;;5071641;28;20040;-42
2022/06/19 12:05:38;;;;;;;0.45;0.30;;;;;;;;;;5070076;28;20048;-54
2022/06/19 12:08:16;;;;;;;0.40;0.30;;;;;;;;;;5072123;28;20048;-47
2022/06/19 12:10:52;;;;;;;0.50;0.30;;;;;;;;;;5071810;28;20118;-52
2022/06/19 12:13:41;;;;;;;0.30;0.22;;;;;;;;;;5071165;28;20052;-49
2022/06/19 12:16:19;;;;;;;3.28;1.60;;;;;;;;;;5071702;28;20045;-51
2022/06/19 12:18:49;;;;;;;0.65;0.40;;;;;;;;;;5071639;28;20118;-52
2022/06/19 12:21:22;;;;;;;7.32;1.75;;;;;;;;;;5071473;28;20044;-52
2022/06/19 12:24:04;;;;;;;2.97;1.38;;;;;;;;;;5071407;28;20048;-51
2022/06/19 12:26:39;;;;;;;4.45;1.23;;;;;;;;;;5071312;28;20037;-51
2022/06/19 12:29:24;;;;;;;5.45;1.02;;;;;;;;;;5071331;28;20041;-46
2022/06/19 12:31:56;;;;;;;1.80;0.77;;;;;;;;;;5071193;28;20052;-50
2022/06/19 12:34:34;;;;;;;1.98;0.68;;;;;;;;;;5070455;28;20040;-48
2022/06/19 12:37:02;;;;;;;1.65;0.30;;;;;;;;;;5070828;28;20047;-48
2022/06/19 12:39:31;;;;;;;0.30;0.30;;;;;;;;;;5088233;28;20036;-48
2022/06/19 12:42:33;;;;;;;0.77;0.28;;;;;;;;;;5091195;28;20056;-52
2022/06/19 12:45:13;;;;;;;0.75;0.38;;;;;;;;;;5091210;28;20132;-51
2022/06/19 12:48:03;;;;;;;2.88;0.40;;;;;;;;;;5091202;28;20113;-52
2022/06/19 12:50:40;;;;;;;0.85;0.30;;;;;;;;;;5091038;28;20057;-48
2022/06/19 12:53:10;;;;;;;1.13;0.50;;;;;;;;;;5090003;28;20054;-45
2022/06/19 12:55:59;;;;;;;5.85;0.63;;;;;;;;;;5090623;28;20102;-45
2022/06/19 12:59:01;;;;;;;0.73;0.30;;;;;;;;;;5091147;28;20040;-51
2022/06/19 13:02:10;;;;;;;1.23;0.32;;;;;;;;;;5090784;28;20491;-49
2022/06/19 13:05:16;;;;;;;1.65;0.40;;;;;;;;;;5090118;28;20521;-46
2022/06/19 13:08:02;;;;;;;3.40;0.43;;;;;;;;;;5090799;28;20032;-47
2022/06/19 13:10:54;;;;;;;1.67;0.40;;;;;;;;;;5090866;28;20040;-53
2022/06/19 13:14:17;;;;;;;0.40;0.30;;;;;;;;;;5090501;28;20048;-49
2022/06/19 13:17:00;;;;;;;0.40;0.40;;;;;;;;;;5089541;28;20047;-49
2022/06/19 13:19:54;;;;;;;5.63;0.50;;;;;;;;;;5090812;28;20063;-51
2022/06/19 13:22:47;;;;;;;0.45;0.35;;;;;;;;;;5090235;28;20055;-50
2022/06/19 13:25:51;;;;;;;4.95;0.93;;;;;;;;;;5090587;28;20056;-51
2022/06/19 13:29:00;;;;;;;2.80;0.50;;;;;;;;;;5090408;28;20085;-51
2022/06/19 13:31:38;;;;;;;0.70;0.47;;;;;;;;;;5088088;28;20078;-49
2022/06/19 13:34:25;;;;;;;0.75;0.40;;;;;;;;;;5090299;28;20059;-51
2022/06/19 13:37:10;;;;;;;1.17;0.40;;;;;;;;;;5090328;28;20090;-47
2022/06/19 13:40:19;;;;;;;1.83;0.40;;;;;;;;;;5088992;28;20101;-51
2022/06/19 13:43:07;;;;;;;1.73;0.47;;;;;;;;;;5086055;28;20051;-47
2022/06/19 13:45:53;;;;;;;0.45;0.45;;;;;;;;;;5090610;28;20148;-51
2022/06/19 13:48:26;;;;;;;0.82;0.40;;;;;;;;;;5090236;28;20098;-50
2022/06/19 13:51:20;;;;;;;1.08;0.40;;;;;;;;;;5090177;28;20377;-52
2022/06/19 13:54:06;;;;;;;1.90;0.45;;;;;;;;;;5090097;28;20044;-50
2022/06/19 13:57:02;;;;;;;1.42;0.50;;;;;;;;;;5090311;28;20558;-51
2022/06/19 13:59:42;;;;;;;3.65;0.60;;;;;;;;;;5089679;28;20075;-50
2022/06/19 14:02:41;;;;;;;2.28;0.80;;;;;;;;;;5090074;28;20028;-47
2022/06/19 14:05:29;;;;;;;1.58;1.08;;;;;;;;;;5090326;28;20127;-50
2022/06/19 14:08:23;;;;;;;1.05;0.60;;;;;;;;;;5090716;28;20119;-51
2022/06/19 14:11:04;;;;;;;2.22;0.60;;;;;;;;;;5094327;28;20037;-49
2022/06/19 14:14:02;;;;;;;1.75;0.95;;;;;;;;;;5094001;28;20682;-48
2022/06/19 14:16:39;;;;;;;3.15;0.93;;;;;;;;;;5094051;28;20052;-47
2022/06/19 14:19:15;;;;;;;1.10;0.55;;;;;;;;;;5094168;28;20047;-48
2022/06/19 14:21:46;;;;;;;3.42;0.70;;;;;;;;;;5093862;28;20402;-48
2022/06/19 14:24:32;;;;;;;6.32;0.85;;;;;;;;;;5094067;28;20044;-50
2022/06/19 14:27:14;;;;;;;3.20;0.70;;;;;;;;;;5093890;28;20040;-47
2022/06/19 14:29:50;;;;;;;1.67;0.70;;;;;;;;;;5093860;28;20109;-50
2022/06/19 14:32:27;;;;;;;9.75;0.90;;;;;;;;;;5093801;28;20044;-49
2022/06/19 14:35:23;;;;;;;2.25;0.60;;;;;;;;;;5092873;28;20071;-47
2022/06/19 14:38:20;;;;;;;18.98;9.55;;;;;;;;;;5089766;28;20044;-53
2022/06/19 14:41:02;;;;;;;7.65;3.70;;;;;;;;;;5093562;28;20486;-49
2022/06/19 14:43:37;;;;;;;1.02;0.80;;;;;;;;;;5092828;28;20653;-53
2022/06/19 14:46:04;;;;;;;2.15;1.08;;;;;;;;;;5093734;28;20388;-52
2022/06/19 14:48:50;;;;;;;3.53;0.80;;;;;;;;;;5092128;28;20032;-51
2022/06/19 14:51:26;;;;;;;1.75;0.75;;;;;;;;;;5093307;28;20066;-48
2022/06/19 14:54:07;;;;;;;4.10;0.93;;;;;;;;;;5092166;28;20044;-45
2022/06/19 14:57:11;;;;;;;2.25;0.60;;;;;;;;;;5093136;28;20050;-53
2022/06/19 15:00:01;;;;;;;1.05;0.60;;;;;;;;;;5092989;28;20036;-47
2022/06/19 15:02:48;;;;;;;1.65;0.52;;;;;;;;;;5092737;28;20118;-50
2022/06/19 15:05:35;;;;;;;5.88;0.65;;;;;;;;;;5092763;28;20050;-48
2022/06/19 15:08:38;;;;;;;21.27;13.70;;;;;;;;;;5092643;28;20059;-45
2022/06/19 15:11:10;;;;;;;1.42;0.80;;;;;;;;;;5080879;28;20396;-47
2022/06/19 15:13:43;;;;;;;2.42;0.80;;;;;;;;;;5092957;28;20052;-49
2022/06/19 15:16:34;;;;;;;0.80;0.50;;;;;;;;;;5092477;28;20051;-48
2022/06/19 15:19:17;;;;;;;1.88;0.68;;;;;;;;;;5092243;28;20044;-49
2022/06/19 15:21:47;;;;;;;2.13;1.00;;;;;;;;;;5092318;28;20092;-52
2022/06/19 15:24:17;;;;;;;2.17;0.63;;;;;;;;;;5092641;28;20123;-48
2022/06/19 15:26:48;;;;;;;2.38;0.90;;;;;;;;;;5092908;28;20110;-53
2022/06/19 15:29:50;;;;;;;1.80;1.20;;;;;;;;;;5092698;28;20048;-50
2022/06/19 15:32:23;;;;;;;0.50;0.50;;;;;;;;;;5080924;28;20056;-51
2022/06/19 15:34:58;;;;;;;0.77;0.40;;;;;;;;;;5092366;28;20044;-50
2022/06/19 15:37:45;;;;;;;0.40;0.40;;;;;;;;;;5092182;28;20097;-47
2022/06/19 15:40:13;;;;;;;0.70;0.50;;;;;;;;;;5092556;28;20040;-48
2022/06/19 15:43:31;;;;;;;13.40;8.38;;;;;;;;;;5092259;28;20131;-50
2022/06/19 15:46:12;;;;;;;1.83;0.70;;;;;;;;;;5092169;28;20063;-49